sensor_id;sensor_type;location;lat;lon;timestamp;P1;durP1;ratioP1;P2;durP2;ratioP2
30289;SDS011;17105;55.652;37.710;2023-04-23T00:00:27;35.13;;;10.82;;
30289;SDS011;17105;55.652;37.710;2023-04-23T00:01:02;37.78;;;11.70;;
30289;SDS011;17105;55.652;37.710;2023-04-23T00:01:37;35.47;;;11.35;;
30289;SDS011;17105;55.652;37.710;2023-04-23T00:02:12;35.08;;;11.65;;
30289;SDS011;17105;55.652;37.710;2023-04-23T00:02:50;37.22;;;10.98;;
30289;SDS011;17105;55.652;37.710;2023-04-23T00:03:24;36.22;;;10.98;;
30289;SDS011;17105;55.652;37.710;2023-04-23T00:04:00;40.78;;;11.32;;
30289;SDS011;17105;55.652;37.710;2023-04-23T00:04:36;29.23;;;10.50;;
30289;SDS011;17105;55.652;37.710;2023-04-23T00:05:12;38.25;;;10.85;;
30289;SDS011;17105;55.652;37.710;2023-04-23T00:05:46;38.58;;;11.45;;
30289;SDS011;17105;55.652;37.710;2023-04-23T00:06:22;33.00;;;10.70;;
30289;SDS011;17105;55.652;37.710;2023-04-23T00:06:57;38.20;;;10.85;;
30289;SDS011;17105;55.652;37.710;2023-04-23T00:07:32;33.03;;;11.93;;
30289;SDS011;17105;55.652;37.710;2023-04-23T00:08:07;37.53;;;10.75;;
30289;SDS011;17105;55.652;37.710;2023-04-23T00:08:42;37.97;;;10.88;;
30289;SDS011;17105;55.652;37.710;2023-04-23T00:09:16;41.13;;;10.98;;
30289;SDS011;17105;55.652;37.710;2023-04-23T00:09:52;47.67;;;10.52;;
30289;SDS011;17105;55.652;37.710;2023-04-23T00:10:30;36.92;;;10.82;;
30289;SDS011;17105;55.652;37.710;2023-04-23T00:11:04;37.88;;;11.15;;
30289;SDS011;17105;55.652;37.710;2023-04-23T00:11:39;37.63;;;10.82;;
30289;SDS011;17105;55.652;37.710;2023-04-23T00:12:13;29.23;;;10.73;;
30289;SDS011;17105;55.652;37.710;2023-04-23T00:12:49;42.67;;;10.88;;
30289;SDS011;17105;55.652;37.710;2023-04-23T00:13:31;33.78;;;10.95;;
30289;SDS011;17105;55.652;37.710;2023-04-23T00:14:04;42.92;;;10.95;;
30289;SDS011;17105;55.652;37.710;2023-04-23T00:14:38;34.78;;;10.63;;
30289;SDS011;17105;55.652;37.710;2023-04-23T00:15:14;43.25;;;10.82;;
30289;SDS011;17105;55.652;37.710;2023-04-23T00:15:50;36.40;;;11.23;;
30289;SDS011;17105;55.652;37.710;2023-04-23T00:16:25;45.33;;;11.35;;
30289;SDS011;17105;55.652;37.710;2023-04-23T00:17:01;34.65;;;11.73;;
30289;SDS011;17105;55.652;37.710;2023-04-23T00:17:36;35.13;;;11.13;;
30289;SDS011;17105;55.652;37.710;2023-04-23T00:18:10;38.15;;;11.38;;
30289;SDS011;17105;55.652;37.710;2023-04-23T00:18:44;28.98;;;10.57;;
30289;SDS011;17105;55.652;37.710;2023-04-23T00:19:19;40.70;;;12.00;;
30289;SDS011;17105;55.652;37.710;2023-04-23T00:19:54;29.77;;;11.15;;
30289;SDS011;17105;55.652;37.710;2023-04-23T00:20:26;40.90;;;10.18;;
30289;SDS011;17105;55.652;37.710;2023-04-23T00:21:00;44.75;;;10.90;;
30289;SDS011;17105;55.652;37.710;2023-04-23T00:21:36;29.52;;;10.25;;
30289;SDS011;17105;55.652;37.710;2023-04-23T00:22:09;34.63;;;11.00;;
30289;SDS011;17105;55.652;37.710;2023-04-23T00:22:44;34.35;;;10.40;;
30289;SDS011;17105;55.652;37.710;2023-04-23T00:23:19;42.03;;;10.73;;
30289;SDS011;17105;55.652;37.710;2023-04-23T00:23:55;43.35;;;11.32;;
30289;SDS011;17105;55.652;37.710;2023-04-23T00:24:28;28.15;;;10.82;;
30289;SDS011;17105;55.652;37.710;2023-04-23T00:25:06;33.72;;;10.88;;
30289;SDS011;17105;55.652;37.710;2023-04-23T00:25:40;46.30;;;12.13;;
30289;SDS011;17105;55.652;37.710;2023-04-23T00:26:14;33.13;;;10.80;;
30289;SDS011;17105;55.652;37.710;2023-04-23T00:26:50;54.28;;;11.75;;
30289;SDS011;17105;55.652;37.710;2023-04-23T00:27:25;36.13;;;10.63;;
30289;SDS011;17105;55.652;37.710;2023-04-23T00:27:59;26.77;;;10.48;;
30289;SDS011;17105;55.652;37.710;2023-04-23T00:28:33;36.95;;;11.10;;
30289;SDS011;17105;55.652;37.710;2023-04-23T00:29:07;41.03;;;11.57;;
30289;SDS011;17105;55.652;37.710;2023-04-23T00:29:42;34.00;;;10.63;;
30289;SDS011;17105;55.652;37.710;2023-04-23T00:30:18;36.15;;;11.55;;
30289;SDS011;17105;55.652;37.710;2023-04-23T00:30:54;51.83;;;11.30;;
30289;SDS011;17105;55.652;37.710;2023-04-23T00:31:28;41.80;;;12.32;;
30289;SDS011;17105;55.652;37.710;2023-04-23T00:32:03;42.28;;;11.65;;
30289;SDS011;17105;55.652;37.710;2023-04-23T00:32:37;42.10;;;11.45;;
30289;SDS011;17105;55.652;37.710;2023-04-23T00:33:11;32.80;;;10.98;;
30289;SDS011;17105;55.652;37.710;2023-04-23T00:33:46;50.53;;;10.80;;
30289;SDS011;17105;55.652;37.710;2023-04-23T00:34:21;32.47;;;10.50;;
30289;SDS011;17105;55.652;37.710;2023-04-23T00:34:54;33.20;;;10.45;;
30289;SDS011;17105;55.652;37.710;2023-04-23T00:35:29;34.55;;;10.90;;
30289;SDS011;17105;55.652;37.710;2023-04-23T00:36:04;43.55;;;11.07;;
30289;SDS011;17105;55.652;37.710;2023-04-23T00:36:38;40.55;;;11.10;;
30289;SDS011;17105;55.652;37.710;2023-04-23T00:37:13;45.78;;;11.02;;
30289;SDS011;17105;55.652;37.710;2023-04-23T00:37:47;31.52;;;11.27;;
30289;SDS011;17105;55.652;37.710;2023-04-23T00:38:22;33.25;;;9.50;;
30289;SDS011;17105;55.652;37.710;2023-04-23T00:38:57;45.22;;;11.30;;
30289;SDS011;17105;55.652;37.710;2023-04-23T00:39:32;41.25;;;10.93;;
30289;SDS011;17105;55.652;37.710;2023-04-23T00:40:07;32.60;;;10.73;;
30289;SDS011;17105;55.652;37.710;2023-04-23T00:40:42;36.83;;;10.48;;
30289;SDS011;17105;55.652;37.710;2023-04-23T00:41:19;35.63;;;10.85;;
30289;SDS011;17105;55.652;37.710;2023-04-23T00:41:53;35.20;;;11.35;;
30289;SDS011;17105;55.652;37.710;2023-04-23T00:42:28;37.70;;;11.27;;
30289;SDS011;17105;55.652;37.710;2023-04-23T00:43:02;47.28;;;11.48;;
30289;SDS011;17105;55.652;37.710;2023-04-23T00:43:37;32.20;;;11.55;;
30289;SDS011;17105;55.652;37.710;2023-04-23T00:44:12;30.65;;;10.55;;
30289;SDS011;17105;55.652;37.710;2023-04-23T00:44:46;32.08;;;10.48;;
30289;SDS011;17105;55.652;37.710;2023-04-23T00:45:20;37.00;;;10.93;;
30289;SDS011;17105;55.652;37.710;2023-04-23T00:45:56;37.95;;;11.18;;
30289;SDS011;17105;55.652;37.710;2023-04-23T00:46:31;64.80;;;12.93;;
30289;SDS011;17105;55.652;37.710;2023-04-23T00:47:04;32.35;;;10.85;;
30289;SDS011;17105;55.652;37.710;2023-04-23T00:47:39;42.72;;;11.15;;
30289;SDS011;17105;55.652;37.710;2023-04-23T00:48:13;31.95;;;10.35;;
30289;SDS011;17105;55.652;37.710;2023-04-23T00:48:47;30.55;;;10.93;;
30289;SDS011;17105;55.652;37.710;2023-04-23T00:49:21;30.38;;;10.18;;
30289;SDS011;17105;55.652;37.710;2023-04-23T00:49:57;41.47;;;11.70;;
30289;SDS011;17105;55.652;37.710;2023-04-23T00:50:32;28.85;;;10.35;;
30289;SDS011;17105;55.652;37.710;2023-04-23T00:51:09;38.75;;;11.23;;
30289;SDS011;17105;55.652;37.710;2023-04-23T00:51:45;37.53;;;10.85;;
30289;SDS011;17105;55.652;37.710;2023-04-23T00:52:19;40.95;;;10.57;;
30289;SDS011;17105;55.652;37.710;2023-04-23T00:52:54;47.30;;;11.52;;
30289;SDS011;17105;55.652;37.710;2023-04-23T00:53:29;43.25;;;11.23;;
30289;SDS011;17105;55.652;37.710;2023-04-23T00:54:04;36.70;;;11.13;;
30289;SDS011;17105;55.652;37.710;2023-04-23T00:54:39;38.17;;;10.20;;
30289;SDS011;17105;55.652;37.710;2023-04-23T00:55:14;40.53;;;12.15;;
30289;SDS011;17105;55.652;37.710;2023-04-23T00:55:49;33.90;;;10.93;;
30289;SDS011;17105;55.652;37.710;2023-04-23T00:56:22;44.90;;;11.38;;
30289;SDS011;17105;55.652;37.710;2023-04-23T00:56:58;32.30;;;10.48;;
30289;SDS011;17105;55.652;37.710;2023-04-23T00:57:32;29.75;;;10.75;;
30289;SDS011;17105;55.652;37.710;2023-04-23T00:58:07;36.85;;;11.15;;
30289;SDS011;17105;55.652;37.710;2023-04-23T00:58:42;33.97;;;11.77;;
30289;SDS011;17105;55.652;37.710;2023-04-23T00:59:15;39.10;;;11.95;;
30289;SDS011;17105;55.652;37.710;2023-04-23T00:59:49;32.88;;;11.32;;
30289;SDS011;17105;55.652;37.710;2023-04-23T01:00:24;40.88;;;10.63;;
30289;SDS011;17105;55.652;37.710;2023-04-23T01:00:58;29.20;;;9.77;;
30289;SDS011;17105;55.652;37.710;2023-04-23T01:01:34;45.50;;;11.57;;
30289;SDS011;17105;55.652;37.710;2023-04-23T01:02:09;35.60;;;10.48;;
30289;SDS011;17105;55.652;37.710;2023-04-23T01:02:43;35.05;;;11.63;;
30289;SDS011;17105;55.652;37.710;2023-04-23T01:03:18;30.65;;;10.70;;
30289;SDS011;17105;55.652;37.710;2023-04-23T01:03:56;32.13;;;10.88;;
30289;SDS011;17105;55.652;37.710;2023-04-23T01:04:30;40.95;;;10.25;;
30289;SDS011;17105;55.652;37.710;2023-04-23T01:05:04;37.70;;;12.50;;
30289;SDS011;17105;55.652;37.710;2023-04-23T01:05:41;33.00;;;10.25;;
30289;SDS011;17105;55.652;37.710;2023-04-23T01:06:17;40.67;;;10.40;;
30289;SDS011;17105;55.652;37.710;2023-04-23T01:06:50;30.35;;;10.35;;
30289;SDS011;17105;55.652;37.710;2023-04-23T01:07:24;39.17;;;10.27;;
30289;SDS011;17105;55.652;37.710;2023-04-23T01:08:01;41.40;;;10.82;;
30289;SDS011;17105;55.652;37.710;2023-04-23T01:08:35;44.22;;;11.38;;
30289;SDS011;17105;55.652;37.710;2023-04-23T01:09:12;37.03;;;10.60;;
30289;SDS011;17105;55.652;37.710;2023-04-23T01:09:47;34.70;;;10.63;;
30289;SDS011;17105;55.652;37.710;2023-04-23T01:10:23;33.90;;;10.20;;
30289;SDS011;17105;55.652;37.710;2023-04-23T01:10:57;39.10;;;11.00;;
30289;SDS011;17105;55.652;37.710;2023-04-23T01:11:31;40.22;;;11.05;;
30289;SDS011;17105;55.652;37.710;2023-04-23T01:12:06;35.78;;;10.77;;
30289;SDS011;17105;55.652;37.710;2023-04-23T01:12:40;47.20;;;11.95;;
30289;SDS011;17105;55.652;37.710;2023-04-23T01:13:14;37.72;;;10.00;;
30289;SDS011;17105;55.652;37.710;2023-04-23T01:13:49;39.58;;;11.57;;
30289;SDS011;17105;55.652;37.710;2023-04-23T01:14:23;42.50;;;11.73;;
30289;SDS011;17105;55.652;37.710;2023-04-23T01:14:55;35.10;;;10.55;;
30289;SDS011;17105;55.652;37.710;2023-04-23T01:15:32;39.03;;;10.15;;
30289;SDS011;17105;55.652;37.710;2023-04-23T01:16:08;33.15;;;10.13;;
30289;SDS011;17105;55.652;37.710;2023-04-23T01:16:43;32.22;;;10.68;;
30289;SDS011;17105;55.652;37.710;2023-04-23T01:17:16;47.10;;;11.05;;
30289;SDS011;17105;55.652;37.710;2023-04-23T01:17:49;32.70;;;10.82;;
30289;SDS011;17105;55.652;37.710;2023-04-23T01:18:25;35.78;;;10.20;;
30289;SDS011;17105;55.652;37.710;2023-04-23T01:19:00;41.00;;;9.88;;
30289;SDS011;17105;55.652;37.710;2023-04-23T01:19:34;27.38;;;10.73;;
30289;SDS011;17105;55.652;37.710;2023-04-23T01:20:09;32.80;;;10.57;;
30289;SDS011;17105;55.652;37.710;2023-04-23T01:20:46;34.25;;;10.05;;
30289;SDS011;17105;55.652;37.710;2023-04-23T01:21:20;42.92;;;10.77;;
30289;SDS011;17105;55.652;37.710;2023-04-23T01:21:54;40.63;;;10.88;;
30289;SDS011;17105;55.652;37.710;2023-04-23T01:22:34;29.80;;;9.68;;
30289;SDS011;17105;55.652;37.710;2023-04-23T01:23:08;36.88;;;10.73;;
30289;SDS011;17105;55.652;37.710;2023-04-23T01:23:42;41.67;;;10.50;;
30289;SDS011;17105;55.652;37.710;2023-04-23T01:24:16;31.25;;;10.52;;
30289;SDS011;17105;55.652;37.710;2023-04-23T01:24:49;38.08;;;10.80;;
30289;SDS011;17105;55.652;37.710;2023-04-23T01:25:25;36.05;;;10.32;;
30289;SDS011;17105;55.652;37.710;2023-04-23T01:25:58;27.95;;;10.70;;
30289;SDS011;17105;55.652;37.710;2023-04-23T01:26:32;33.17;;;10.55;;
30289;SDS011;17105;55.652;37.710;2023-04-23T01:27:06;31.75;;;10.55;;
30289;SDS011;17105;55.652;37.710;2023-04-23T01:27:41;34.08;;;10.05;;
30289;SDS011;17105;55.652;37.710;2023-04-23T01:28:14;38.03;;;10.70;;
30289;SDS011;17105;55.652;37.710;2023-04-23T01:28:52;34.40;;;9.63;;
30289;SDS011;17105;55.652;37.710;2023-04-23T01:29:25;32.42;;;10.60;;
30289;SDS011;17105;55.652;37.710;2023-04-23T01:30:00;35.28;;;10.60;;
30289;SDS011;17105;55.652;37.710;2023-04-23T01:30:37;23.65;;;9.68;;
30289;SDS011;17105;55.652;37.710;2023-04-23T01:31:13;34.92;;;10.52;;
30289;SDS011;17105;55.652;37.710;2023-04-23T01:31:46;40.50;;;10.07;;
30289;SDS011;17105;55.652;37.710;2023-04-23T01:32:21;32.30;;;9.63;;
30289;SDS011;17105;55.652;37.710;2023-04-23T01:32:56;35.38;;;10.57;;
30289;SDS011;17105;55.652;37.710;2023-04-23T01:33:30;34.05;;;10.38;;
30289;SDS011;17105;55.652;37.710;2023-04-23T01:34:07;32.85;;;9.82;;
30289;SDS011;17105;55.652;37.710;2023-04-23T01:34:40;32.72;;;10.10;;
30289;SDS011;17105;55.652;37.710;2023-04-23T01:35:16;37.80;;;10.73;;
30289;SDS011;17105;55.652;37.710;2023-04-23T01:35:51;27.17;;;9.25;;
30289;SDS011;17105;55.652;37.710;2023-04-23T01:36:26;37.20;;;10.27;;
30289;SDS011;17105;55.652;37.710;2023-04-23T01:37:01;35.60;;;10.50;;
30289;SDS011;17105;55.652;37.710;2023-04-23T01:37:38;36.45;;;10.48;;
30289;SDS011;17105;55.652;37.710;2023-04-23T01:38:13;30.75;;;10.45;;
30289;SDS011;17105;55.652;37.710;2023-04-23T01:38:48;33.28;;;10.52;;
30289;SDS011;17105;55.652;37.710;2023-04-23T01:39:23;37.33;;;10.55;;
30289;SDS011;17105;55.652;37.710;2023-04-23T01:39:57;40.03;;;9.77;;
30289;SDS011;17105;55.652;37.710;2023-04-23T01:40:31;24.00;;;10.18;;
30289;SDS011;17105;55.652;37.710;2023-04-23T01:41:05;57.38;;;15.73;;
30289;SDS011;17105;55.652;37.710;2023-04-23T01:41:39;47.55;;;13.45;;
30289;SDS011;17105;55.652;37.710;2023-04-23T01:42:13;55.28;;;17.73;;
30289;SDS011;17105;55.652;37.710;2023-04-23T01:42:48;59.88;;;19.38;;
30289;SDS011;17105;55.652;37.710;2023-04-23T01:43:22;33.70;;;11.82;;
30289;SDS011;17105;55.652;37.710;2023-04-23T01:43:57;45.53;;;13.68;;
30289;SDS011;17105;55.652;37.710;2023-04-23T01:44:32;34.90;;;11.23;;
30289;SDS011;17105;55.652;37.710;2023-04-23T01:45:06;31.45;;;11.13;;
30289;SDS011;17105;55.652;37.710;2023-04-23T01:45:42;31.45;;;10.50;;
30289;SDS011;17105;55.652;37.710;2023-04-23T01:46:16;34.60;;;10.95;;
30289;SDS011;17105;55.652;37.710;2023-04-23T01:46:50;29.88;;;10.65;;
30289;SDS011;17105;55.652;37.710;2023-04-23T01:47:23;30.27;;;9.18;;
30289;SDS011;17105;55.652;37.710;2023-04-23T01:47:58;36.83;;;10.82;;
30289;SDS011;17105;55.652;37.710;2023-04-23T01:48:33;25.52;;;9.13;;
30289;SDS011;17105;55.652;37.710;2023-04-23T01:49:07;30.08;;;9.50;;
30289;SDS011;17105;55.652;37.710;2023-04-23T01:49:42;26.40;;;10.27;;
30289;SDS011;17105;55.652;37.710;2023-04-23T01:50:16;33.33;;;11.25;;
30289;SDS011;17105;55.652;37.710;2023-04-23T01:50:50;43.85;;;10.65;;
30289;SDS011;17105;55.652;37.710;2023-04-23T01:51:25;33.47;;;10.02;;
30289;SDS011;17105;55.652;37.710;2023-04-23T01:51:59;31.25;;;10.13;;
30289;SDS011;17105;55.652;37.710;2023-04-23T01:52:32;28.30;;;9.10;;
30289;SDS011;17105;55.652;37.710;2023-04-23T01:53:07;33.80;;;9.77;;
30289;SDS011;17105;55.652;37.710;2023-04-23T01:53:41;36.80;;;10.23;;
30289;SDS011;17105;55.652;37.710;2023-04-23T01:54:15;45.78;;;10.00;;
30289;SDS011;17105;55.652;37.710;2023-04-23T01:54:52;35.70;;;10.85;;
30289;SDS011;17105;55.652;37.710;2023-04-23T01:55:27;39.13;;;9.85;;
30289;SDS011;17105;55.652;37.710;2023-04-23T01:56:00;31.02;;;9.48;;
30289;SDS011;17105;55.652;37.710;2023-04-23T01:56:35;33.28;;;11.30;;
30289;SDS011;17105;55.652;37.710;2023-04-23T01:57:10;33.50;;;9.75;;
30289;SDS011;17105;55.652;37.710;2023-04-23T01:57:43;27.73;;;9.77;;
30289;SDS011;17105;55.652;37.710;2023-04-23T01:58:18;38.95;;;9.48;;
30289;SDS011;17105;55.652;37.710;2023-04-23T01:58:53;30.77;;;9.73;;
30289;SDS011;17105;55.652;37.710;2023-04-23T01:59:27;32.97;;;9.10;;
30289;SDS011;17105;55.652;37.710;2023-04-23T02:00:03;32.70;;;9.93;;
30289;SDS011;17105;55.652;37.710;2023-04-23T02:00:46;35.15;;;10.18;;
30289;SDS011;17105;55.652;37.710;2023-04-23T02:01:19;46.80;;;10.32;;
30289;SDS011;17105;55.652;37.710;2023-04-23T02:01:54;27.38;;;9.38;;
30289;SDS011;17105;55.652;37.710;2023-04-23T02:02:28;34.40;;;9.00;;
30289;SDS011;17105;55.652;37.710;2023-04-23T02:03:02;33.33;;;10.23;;
30289;SDS011;17105;55.652;37.710;2023-04-23T02:03:37;24.95;;;9.65;;
30289;SDS011;17105;55.652;37.710;2023-04-23T02:04:12;36.22;;;9.60;;
30289;SDS011;17105;55.652;37.710;2023-04-23T02:04:47;26.92;;;9.75;;
30289;SDS011;17105;55.652;37.710;2023-04-23T02:05:25;37.28;;;9.40;;
30289;SDS011;17105;55.652;37.710;2023-04-23T02:06:02;32.88;;;10.10;;
30289;SDS011;17105;55.652;37.710;2023-04-23T02:06:36;28.42;;;9.65;;
30289;SDS011;17105;55.652;37.710;2023-04-23T02:07:10;35.75;;;10.10;;
30289;SDS011;17105;55.652;37.710;2023-04-23T02:07:44;29.85;;;9.98;;
30289;SDS011;17105;55.652;37.710;2023-04-23T02:08:19;38.40;;;10.05;;
30289;SDS011;17105;55.652;37.710;2023-04-23T02:08:55;27.77;;;10.52;;
30289;SDS011;17105;55.652;37.710;2023-04-23T02:09:31;38.60;;;10.23;;
30289;SDS011;17105;55.652;37.710;2023-04-23T02:10:05;40.90;;;9.93;;
30289;SDS011;17105;55.652;37.710;2023-04-23T02:10:41;57.42;;;11.40;;
30289;SDS011;17105;55.652;37.710;2023-04-23T02:11:15;32.28;;;9.90;;
30289;SDS011;17105;55.652;37.710;2023-04-23T02:11:51;32.40;;;9.27;;
30289;SDS011;17105;55.652;37.710;2023-04-23T02:12:26;34.90;;;9.50;;
30289;SDS011;17105;55.652;37.710;2023-04-23T02:13:00;32.47;;;10.00;;
30289;SDS011;17105;55.652;37.710;2023-04-23T02:13:35;34.80;;;9.02;;
30289;SDS011;17105;55.652;37.710;2023-04-23T02:14:09;32.75;;;9.25;;
30289;SDS011;17105;55.652;37.710;2023-04-23T02:14:42;33.05;;;9.88;;
30289;SDS011;17105;55.652;37.710;2023-04-23T02:15:15;34.80;;;9.55;;
30289;SDS011;17105;55.652;37.710;2023-04-23T02:15:52;31.52;;;9.13;;
30289;SDS011;17105;55.652;37.710;2023-04-23T02:16:26;33.35;;;9.65;;
30289;SDS011;17105;55.652;37.710;2023-04-23T02:16:59;35.45;;;10.30;;
30289;SDS011;17105;55.652;37.710;2023-04-23T02:17:33;32.50;;;9.60;;
30289;SDS011;17105;55.652;37.710;2023-04-23T02:18:08;32.78;;;9.32;;
30289;SDS011;17105;55.652;37.710;2023-04-23T02:18:42;42.50;;;10.80;;
30289;SDS011;17105;55.652;37.710;2023-04-23T02:19:15;42.50;;;10.00;;
30289;SDS011;17105;55.652;37.710;2023-04-23T02:19:50;27.98;;;9.70;;
30289;SDS011;17105;55.652;37.710;2023-04-23T02:20:27;37.15;;;9.90;;
30289;SDS011;17105;55.652;37.710;2023-04-23T02:21:01;36.40;;;10.63;;
30289;SDS011;17105;55.652;37.710;2023-04-23T02:21:36;31.48;;;9.80;;
30289;SDS011;17105;55.652;37.710;2023-04-23T02:22:10;28.17;;;9.68;;
30289;SDS011;17105;55.652;37.710;2023-04-23T02:22:44;28.88;;;9.27;;
30289;SDS011;17105;55.652;37.710;2023-04-23T02:23:20;35.08;;;9.38;;
30289;SDS011;17105;55.652;37.710;2023-04-23T02:23:55;34.10;;;8.95;;
30289;SDS011;17105;55.652;37.710;2023-04-23T02:24:28;29.23;;;9.30;;
30289;SDS011;17105;55.652;37.710;2023-04-23T02:25:04;32.25;;;10.45;;
30289;SDS011;17105;55.652;37.710;2023-04-23T02:25:40;31.73;;;10.38;;
30289;SDS011;17105;55.652;37.710;2023-04-23T02:26:14;26.88;;;9.93;;
30289;SDS011;17105;55.652;37.710;2023-04-23T02:26:48;33.63;;;9.63;;
30289;SDS011;17105;55.652;37.710;2023-04-23T02:27:22;32.17;;;11.23;;
30289;SDS011;17105;55.652;37.710;2023-04-23T02:27:56;30.60;;;9.73;;
30289;SDS011;17105;55.652;37.710;2023-04-23T02:28:31;32.67;;;9.25;;
30289;SDS011;17105;55.652;37.710;2023-04-23T02:29:05;27.85;;;9.32;;
30289;SDS011;17105;55.652;37.710;2023-04-23T02:29:39;30.23;;;9.85;;
30289;SDS011;17105;55.652;37.710;2023-04-23T02:30:13;25.90;;;9.10;;
30289;SDS011;17105;55.652;37.710;2023-04-23T02:30:46;28.70;;;9.20;;
30289;SDS011;17105;55.652;37.710;2023-04-23T02:31:20;22.50;;;9.20;;
30289;SDS011;17105;55.652;37.710;2023-04-23T02:31:54;31.60;;;10.10;;
30289;SDS011;17105;55.652;37.710;2023-04-23T02:32:30;27.67;;;9.60;;
30289;SDS011;17105;55.652;37.710;2023-04-23T02:33:04;26.02;;;9.35;;
30289;SDS011;17105;55.652;37.710;2023-04-23T02:33:40;34.88;;;9.85;;
30289;SDS011;17105;55.652;37.710;2023-04-23T02:34:14;28.60;;;9.45;;
30289;SDS011;17105;55.652;37.710;2023-04-23T02:34:47;37.88;;;9.75;;
30289;SDS011;17105;55.652;37.710;2023-04-23T02:35:22;32.17;;;9.93;;
30289;SDS011;17105;55.652;37.710;2023-04-23T02:35:57;32.00;;;9.70;;
30289;SDS011;17105;55.652;37.710;2023-04-23T02:36:30;37.97;;;10.00;;
30289;SDS011;17105;55.652;37.710;2023-04-23T02:37:04;36.53;;;10.20;;
30289;SDS011;17105;55.652;37.710;2023-04-23T02:37:39;34.58;;;10.35;;
30289;SDS011;17105;55.652;37.710;2023-04-23T02:38:13;31.52;;;9.55;;
30289;SDS011;17105;55.652;37.710;2023-04-23T02:38:49;37.40;;;9.45;;
30289;SDS011;17105;55.652;37.710;2023-04-23T02:39:24;30.52;;;9.77;;
30289;SDS011;17105;55.652;37.710;2023-04-23T02:39:57;28.35;;;10.25;;
30289;SDS011;17105;55.652;37.710;2023-04-23T02:40:30;34.40;;;10.63;;
30289;SDS011;17105;55.652;37.710;2023-04-23T02:41:05;41.13;;;11.10;;
30289;SDS011;17105;55.652;37.710;2023-04-23T02:41:38;41.42;;;10.10;;
30289;SDS011;17105;55.652;37.710;2023-04-23T02:42:13;33.78;;;10.00;;
30289;SDS011;17105;55.652;37.710;2023-04-23T02:42:47;25.63;;;9.45;;
30289;SDS011;17105;55.652;37.710;2023-04-23T02:43:22;33.90;;;9.60;;
30289;SDS011;17105;55.652;37.710;2023-04-23T02:43:56;36.22;;;9.38;;
30289;SDS011;17105;55.652;37.710;2023-04-23T02:44:31;37.10;;;9.80;;
30289;SDS011;17105;55.652;37.710;2023-04-23T02:45:05;26.73;;;9.98;;
30289;SDS011;17105;55.652;37.710;2023-04-23T02:45:38;37.47;;;9.52;;
30289;SDS011;17105;55.652;37.710;2023-04-23T02:46:14;30.55;;;9.38;;
30289;SDS011;17105;55.652;37.710;2023-04-23T02:46:48;32.03;;;9.82;;
30289;SDS011;17105;55.652;37.710;2023-04-23T02:47:21;35.33;;;10.45;;
30289;SDS011;17105;55.652;37.710;2023-04-23T02:47:56;33.05;;;9.75;;
30289;SDS011;17105;55.652;37.710;2023-04-23T02:48:30;35.90;;;10.82;;
30289;SDS011;17105;55.652;37.710;2023-04-23T02:49:04;42.67;;;10.02;;
30289;SDS011;17105;55.652;37.710;2023-04-23T02:49:40;38.75;;;10.50;;
30289;SDS011;17105;55.652;37.710;2023-04-23T02:50:14;34.78;;;9.68;;
30289;SDS011;17105;55.652;37.710;2023-04-23T02:50:48;31.45;;;9.52;;
30289;SDS011;17105;55.652;37.710;2023-04-23T02:51:24;34.72;;;10.57;;
30289;SDS011;17105;55.652;37.710;2023-04-23T02:51:57;33.20;;;9.65;;
30289;SDS011;17105;55.652;37.710;2023-04-23T02:52:31;37.35;;;9.00;;
30289;SDS011;17105;55.652;37.710;2023-04-23T02:53:05;39.20;;;9.35;;
30289;SDS011;17105;55.652;37.710;2023-04-23T02:53:39;33.50;;;9.27;;
30289;SDS011;17105;55.652;37.710;2023-04-23T02:54:15;36.72;;;10.02;;
30289;SDS011;17105;55.652;37.710;2023-04-23T02:54:50;30.48;;;9.18;;
30289;SDS011;17105;55.652;37.710;2023-04-23T02:55:24;31.00;;;9.65;;
30289;SDS011;17105;55.652;37.710;2023-04-23T02:56:03;39.30;;;9.57;;
30289;SDS011;17105;55.652;37.710;2023-04-23T02:56:39;34.03;;;9.73;;
30289;SDS011;17105;55.652;37.710;2023-04-23T02:57:12;27.55;;;9.20;;
30289;SDS011;17105;55.652;37.710;2023-04-23T02:57:48;29.02;;;9.43;;
30289;SDS011;17105;55.652;37.710;2023-04-23T02:58:22;32.55;;;9.68;;
30289;SDS011;17105;55.652;37.710;2023-04-23T02:58:57;41.58;;;10.07;;
30289;SDS011;17105;55.652;37.710;2023-04-23T02:59:32;39.63;;;9.52;;
30289;SDS011;17105;55.652;37.710;2023-04-23T03:00:06;39.30;;;10.13;;
30289;SDS011;17105;55.652;37.710;2023-04-23T03:00:44;39.45;;;9.50;;
30289;SDS011;17105;55.652;37.710;2023-04-23T03:01:18;44.05;;;10.05;;
30289;SDS011;17105;55.652;37.710;2023-04-23T03:01:52;32.53;;;9.27;;
30289;SDS011;17105;55.652;37.710;2023-04-23T03:02:25;37.05;;;9.98;;
30289;SDS011;17105;55.652;37.710;2023-04-23T03:03:00;34.50;;;10.07;;
30289;SDS011;17105;55.652;37.710;2023-04-23T03:03:34;41.53;;;10.70;;
30289;SDS011;17105;55.652;37.710;2023-04-23T03:04:09;41.25;;;10.48;;
30289;SDS011;17105;55.652;37.710;2023-04-23T03:04:44;44.38;;;9.73;;
30289;SDS011;17105;55.652;37.710;2023-04-23T03:05:18;32.63;;;9.77;;
30289;SDS011;17105;55.652;37.710;2023-04-23T03:05:52;31.40;;;9.27;;
30289;SDS011;17105;55.652;37.710;2023-04-23T03:06:26;30.65;;;9.73;;
30289;SDS011;17105;55.652;37.710;2023-04-23T03:07:00;31.70;;;9.10;;
30289;SDS011;17105;55.652;37.710;2023-04-23T03:07:36;34.65;;;8.60;;
30289;SDS011;17105;55.652;37.710;2023-04-23T03:08:10;29.73;;;9.05;;
30289;SDS011;17105;55.652;37.710;2023-04-23T03:08:44;35.10;;;9.63;;
30289;SDS011;17105;55.652;37.710;2023-04-23T03:09:20;34.40;;;8.90;;
30289;SDS011;17105;55.652;37.710;2023-04-23T03:09:55;31.02;;;9.70;;
30289;SDS011;17105;55.652;37.710;2023-04-23T03:10:29;21.42;;;8.02;;
30289;SDS011;17105;55.652;37.710;2023-04-23T03:11:03;44.15;;;8.52;;
30289;SDS011;17105;55.652;37.710;2023-04-23T03:11:39;25.05;;;9.10;;
30289;SDS011;17105;55.652;37.710;2023-04-23T03:12:14;35.05;;;8.95;;
30289;SDS011;17105;55.652;37.710;2023-04-23T03:12:49;29.13;;;8.70;;
30289;SDS011;17105;55.652;37.710;2023-04-23T03:13:23;30.58;;;8.70;;
30289;SDS011;17105;55.652;37.710;2023-04-23T03:13:58;26.08;;;8.82;;
30289;SDS011;17105;55.652;37.710;2023-04-23T03:14:31;26.17;;;8.43;;
30289;SDS011;17105;55.652;37.710;2023-04-23T03:15:07;38.58;;;8.63;;
30289;SDS011;17105;55.652;37.710;2023-04-23T03:15:41;28.55;;;9.82;;
30289;SDS011;17105;55.652;37.710;2023-04-23T03:16:15;38.85;;;9.43;;
30289;SDS011;17105;55.652;37.710;2023-04-23T03:16:50;28.75;;;9.13;;
30289;SDS011;17105;55.652;37.710;2023-04-23T03:17:24;32.05;;;8.98;;
30289;SDS011;17105;55.652;37.710;2023-04-23T03:17:57;27.67;;;9.13;;
30289;SDS011;17105;55.652;37.710;2023-04-23T03:18:32;27.67;;;8.50;;
30289;SDS011;17105;55.652;37.710;2023-04-23T03:19:07;26.10;;;8.63;;
30289;SDS011;17105;55.652;37.710;2023-04-23T03:19:41;27.67;;;9.43;;
30289;SDS011;17105;55.652;37.710;2023-04-23T03:20:16;39.05;;;9.25;;
30289;SDS011;17105;55.652;37.710;2023-04-23T03:20:50;30.38;;;8.75;;
30289;SDS011;17105;55.652;37.710;2023-04-23T03:21:24;31.20;;;10.48;;